createdAt,value
2023-03-06T00:01:00.447Z,100899.97
2023-03-06T00:03:28.977Z,100904.98
2023-03-06T00:05:59.280Z,100896.73
2023-03-06T00:08:28.540Z,100891.23
2023-03-06T00:11:01.013Z,100890.87
2023-03-06T00:13:35.347Z,100892.27
2023-03-06T00:16:07.322Z,100896.05
2023-03-06T00:18:35.988Z,100895.02
2023-03-06T00:21:09.597Z,100895.71
2023-03-06T00:23:37.961Z,100896.05
2023-03-06T00:26:08.486Z,100897.27
2023-03-06T00:28:38.501Z,100890.70
2023-03-06T00:31:15.712Z,100896.03
2023-03-06T00:33:45.908Z,100894.63
2023-03-06T00:36:14.692Z,100890.34
2023-03-06T00:38:43.090Z,100887.04
2023-03-06T00:41:12.408Z,100893.23
2023-03-06T00:43:40.851Z,100898.73
2023-03-06T00:46:10.153Z,100894.09
2023-03-06T00:48:38.897Z,100889.92
2023-03-06T00:51:13.468Z,100888.52
2023-03-06T00:53:43.375Z,100885.93
2023-03-06T00:56:11.964Z,100891.79
2023-03-06T00:58:41.869Z,100893.16
2023-03-06T01:01:10.331Z,100898.15
2023-03-06T01:03:40.072Z,100904.54
2023-03-06T01:06:09.787Z,100911.94
2023-03-06T01:08:38.761Z,100910.89
2023-03-06T01:11:07.958Z,100910.20
2023-03-06T01:13:36.230Z,100910.71
2023-03-06T01:16:13.082Z,100910.35
2023-03-06T01:18:43.736Z,100910.51
2023-03-06T01:21:12.482Z,100913.95
2023-03-06T01:23:42.363Z,100912.89
2023-03-06T01:26:10.918Z,100906.52
2023-03-06T01:28:40.934Z,100901.49
2023-03-06T01:31:09.660Z,100901.83
2023-03-06T01:33:38.450Z,100905.42
2023-03-06T01:36:08.441Z,100909.20
2023-03-06T01:38:37.011Z,100913.69
2023-03-06T01:41:06.523Z,100907.09
2023-03-06T01:43:36.124Z,100903.62
2023-03-06T01:46:29.505Z,100912.91
2023-03-06T01:49:12.622Z,100910.84
2023-03-06T01:51:53.209Z,100910.30
2023-03-06T01:54:31.506Z,100910.96
2023-03-06T01:57:04.882Z,100909.92
2023-03-06T01:59:33.888Z,100904.05
2023-03-06T02:02:02.994Z,100906.63
2023-03-06T02:04:31.246Z,100906.98
2023-03-06T02:06:59.727Z,100906.46
2023-03-06T02:09:30.362Z,100906.80
2023-03-06T02:12:00.096Z,100907.83
2023-03-06T02:14:28.865Z,100909.53
2023-03-06T02:17:04.518Z,100905.55
2023-03-06T02:20:08.121Z,100910.91
2023-03-06T02:22:59.218Z,100917.80
2023-03-06T02:25:36.409Z,100914.67
2023-03-06T02:28:07.034Z,100915.70
2023-03-06T02:30:36.383Z,100915.69
2023-03-06T02:33:05.436Z,100912.39
2023-03-06T02:35:35.524Z,100917.56
2023-03-06T02:38:09.884Z,100920.46
2023-03-06T02:40:38.662Z,100922.52
2023-03-06T02:43:08.161Z,100922.33
2023-03-06T02:45:44.695Z,100922.13
2023-03-06T02:48:13.822Z,100919.70
2023-03-06T02:50:42.814Z,100921.73
2023-03-06T02:53:12.011Z,100919.61
2023-03-06T02:55:40.385Z,100919.06
2023-03-06T02:58:09.478Z,100919.54
2023-03-06T03:00:38.448Z,100914.83
2023-03-06T03:03:07.986Z,100914.60
2023-03-06T03:05:36.863Z,100922.14
2023-03-06T03:08:21.231Z,100926.59
2023-03-06T03:10:49.908Z,100930.86
2023-03-06T03:13:19.922Z,100927.21
2023-03-06T03:16:03.634Z,100930.12
2023-03-06T03:18:34.853Z,100934.92
2023-03-06T03:21:07.888Z,100932.84
2023-03-06T03:23:36.393Z,100937.85
2023-03-06T03:26:19.088Z,100938.02
2023-03-06T03:29:01.698Z,100939.05
2023-03-06T03:31:30.504Z,100937.16
2023-03-06T03:33:59.274Z,100936.63
2023-03-06T03:36:28.642Z,100937.51
2023-03-06T03:38:57.980Z,100935.98
2023-03-06T03:41:27.079Z,100938.75
2023-03-06T03:43:55.858Z,100941.00
2023-03-06T03:46:31.359Z,100943.11
2023-03-06T03:49:01.322Z,100949.17
2023-03-06T03:51:30.233Z,100948.10
2023-03-06T03:54:00.124Z,100946.66
2023-03-06T03:56:30.446Z,100946.55
2023-03-06T03:59:03.129Z,100946.39
2023-03-06T04:01:39.104Z,100949.70
2023-03-06T04:04:08.278Z,100947.98
2023-03-06T04:06:37.062Z,100946.09
2023-03-06T04:09:06.292Z,100941.77
2023-03-06T04:11:34.742Z,100939.39
2023-03-06T04:14:03.834Z,100944.95
2023-03-06T04:16:33.013Z,100942.90
2023-03-06T04:19:01.732Z,100938.26
2023-03-06T04:21:33.908Z,100938.45
2023-03-06T04:24:03.490Z,100943.65
2023-03-06T04:26:31.991Z,100943.86
2023-03-06T04:29:01.477Z,100940.76
2023-03-06T04:31:31.930Z,100942.67
2023-03-06T04:34:00.596Z,100944.92
2023-03-06T04:36:31.419Z,100950.95
2023-03-06T04:39:03.643Z,100951.80
2023-03-06T04:41:35.250Z,100952.64
2023-03-06T04:44:04.150Z,100953.83
2023-03-06T04:46:32.926Z,100959.36
2023-03-06T04:49:01.611Z,100961.92
2023-03-06T04:51:30.194Z,100965.54
2023-03-06T04:53:59.307Z,100969.52
2023-03-06T04:56:28.182Z,100972.45
2023-03-06T04:58:57.593Z,100978.00
2023-03-06T05:01:25.830Z,100979.05
2023-03-06T05:03:54.673Z,100983.23
2023-03-06T05:06:23.016Z,100988.09
2023-03-06T05:08:51.602Z,100985.69
2023-03-06T05:11:21.926Z,100989.34
2023-03-06T05:13:50.610Z,100992.45
2023-03-06T05:16:23.717Z,100997.31
2023-03-06T05:18:53.100Z,101002.86
2023-03-06T05:21:21.481Z,101004.41
2023-03-06T05:23:49.865Z,101001.31
2023-03-06T05:26:18.336Z,101006.52
2023-03-06T05:28:46.831Z,101010.67
2023-03-06T05:31:15.296Z,101015.35
2023-03-06T05:33:43.687Z,101018.80
2023-03-06T05:36:12.340Z,101021.05
2023-03-06T05:38:45.773Z,101022.78
2023-03-06T05:41:15.584Z,101028.83
2023-03-06T05:43:44.053Z,101028.83
2023-03-06T05:46:12.740Z,101028.84
2023-03-06T05:48:41.022Z,101028.84
2023-03-06T05:51:10.012Z,101031.62
2023-03-06T05:53:40.044Z,101030.73
2023-03-06T05:56:11.282Z,101029.51
2023-03-06T05:58:42.204Z,101033.30
2023-03-06T06:01:19.175Z,101033.81
2023-03-06T06:03:47.898Z,101036.25
2023-03-06T06:06:16.454Z,101037.07
2023-03-06T06:08:45.033Z,101039.48
2023-03-06T06:11:13.721Z,101040.83
2023-03-06T06:13:44.964Z,101043.92
2023-03-06T06:16:16.615Z,101048.41
2023-03-06T06:18:45.617Z,101052.87
2023-03-06T06:21:19.011Z,101050.45
2023-03-06T06:23:49.025Z,101057.02
2023-03-06T06:26:17.244Z,101058.89
2023-03-06T06:28:45.791Z,101060.09
2023-03-06T06:31:14.313Z,101060.59
2023-03-06T06:33:43.169Z,101058.66
2023-03-06T06:36:21.502Z,101059.16
2023-03-06T06:38:51.273Z,101061.05
2023-03-06T06:41:42.335Z,101062.75
2023-03-06T06:44:10.663Z,101063.60
2023-03-06T06:47:20.897Z,101068.27
2023-03-06T06:49:30.574Z,101074.48
2023-03-06T06:51:59.975Z,101073.58
2023-03-06T06:54:28.456Z,101076.14
2023-03-06T06:56:57.022Z,101074.75
2023-03-06T06:59:25.411Z,101078.16
2023-03-06T07:01:54.185Z,101077.80
2023-03-06T07:04:22.982Z,101076.38
2023-03-06T07:06:51.559Z,101078.91
2023-03-06T07:09:20.451Z,101085.80
2023-03-06T07:11:48.723Z,101093.71
2023-03-06T07:14:17.308Z,101098.02
2023-03-06T07:16:46.202Z,101102.31
2023-03-06T07:19:18.383Z,101097.77
2023-03-06T07:21:47.171Z,101102.07
2023-03-06T07:24:15.740Z,101097.21
2023-03-06T07:26:48.431Z,101097.54
2023-03-06T07:29:16.896Z,101102.16
2023-03-06T07:31:45.303Z,101100.21
2023-03-06T07:34:14.039Z,101100.19
2023-03-06T07:36:42.338Z,101100.82
2023-03-06T07:39:10.818Z,101100.93
2023-03-06T07:41:41.654Z,101103.10
2023-03-06T07:44:10.959Z,101110.13
2023-03-06T07:46:39.441Z,101110.73
2023-03-06T07:49:08.074Z,101109.42
2023-03-06T07:51:36.706Z,101108.64
2023-03-06T07:54:05.604Z,101115.12
2023-03-06T07:56:35.863Z,101116.77
2023-03-06T07:59:04.722Z,101118.60
2023-03-06T08:01:33.395Z,101114.91
2023-03-06T08:04:02.224Z,101118.86
2023-03-06T08:06:31.091Z,101117.42
2023-03-06T08:08:59.347Z,101119.66
2023-03-06T08:11:30.615Z,101121.77
2023-03-06T08:14:00.505Z,101121.02
2023-03-06T08:16:29.835Z,101123.79
2023-03-06T08:18:58.700Z,101122.23
2023-03-06T08:21:27.907Z,101122.95
2023-03-06T08:23:56.489Z,101121.23
2023-03-06T08:26:27.412Z,101120.54
2023-03-06T08:28:56.832Z,101118.77
2023-03-06T08:31:38.839Z,101118.06
2023-03-06T08:34:10.045Z,101121.80
2023-03-06T08:36:38.434Z,101122.61
2023-03-06T08:39:07.233Z,101123.95
2023-03-06T08:41:36.417Z,101124.96
2023-03-06T08:44:05.518Z,101124.12
2023-03-06T08:46:34.708Z,101123.95
2023-03-06T08:49:03.085Z,101129.66
2023-03-06T08:51:31.566Z,101126.00
2023-03-06T08:54:01.996Z,101129.06
2023-03-06T08:56:32.624Z,101131.63
2023-03-06T08:59:02.051Z,101129.68
2023-03-06T09:01:35.359Z,101128.10
2023-03-06T09:04:23.585Z,101128.20
2023-03-06T09:06:53.895Z,101126.07
2023-03-06T09:09:23.087Z,101127.75
2023-03-06T09:11:53.924Z,101129.97
2023-03-06T09:14:22.205Z,101133.92
2023-03-06T09:16:50.649Z,101133.91
2023-03-06T09:19:19.062Z,101136.67
2023-03-06T09:21:49.400Z,101137.58
2023-03-06T09:24:17.984Z,101139.84
2023-03-06T09:26:47.979Z,101140.92
2023-03-06T09:29:17.786Z,101141.02
2023-03-06T09:31:48.635Z,101143.31
2023-03-06T09:34:17.427Z,101138.31
2023-03-06T09:36:56.764Z,101145.60
2023-03-06T09:39:26.495Z,101144.88
2023-03-06T09:41:55.152Z,101146.15
2023-03-06T09:44:33.252Z,101148.69
2023-03-06T09:47:16.783Z,101150.91
2023-03-06T09:50:05.022Z,101151.23
2023-03-06T09:52:46.923Z,101154.16
2023-03-06T09:55:16.118Z,101150.52
2023-03-06T09:57:55.146Z,101148.98
2023-03-06T10:01:02.959Z,101147.98
2023-03-06T10:03:39.618Z,101147.17
2023-03-06T10:06:34.621Z,101144.92
2023-03-06T10:09:10.063Z,101138.83
2023-03-06T10:11:53.390Z,101136.89
2023-03-06T10:14:33.244Z,101136.01
2023-03-06T10:17:02.947Z,101133.21
2023-03-06T10:19:38.276Z,101128.84
2023-03-06T10:22:26.846Z,101130.90
2023-03-06T10:24:58.631Z,101128.98
2023-03-06T10:27:35.578Z,101129.81
2023-03-06T10:30:27.014Z,101129.29
2023-03-06T10:32:59.232Z,101122.01
2023-03-06T10:35:36.770Z,101122.16
2023-03-06T10:38:38.552Z,101121.27
2023-03-06T10:41:13.472Z,101116.50
2023-03-06T10:43:44.497Z,101116.57
2023-03-06T10:46:15.105Z,101112.52
2023-03-06T10:48:44.556Z,101116.11
2023-03-06T10:51:20.197Z,101108.95
2023-03-06T10:53:49.553Z,101107.04
2023-03-06T10:56:40.836Z,101108.80
2023-03-06T10:59:13.603Z,101108.31
2023-03-06T11:01:50.321Z,101109.88
2023-03-06T11:04:25.821Z,101112.58
2023-03-06T11:07:18.921Z,101113.64
2023-03-06T11:09:58.709Z,101113.52
2023-03-06T11:12:32.434Z,101117.67
2023-03-06T11:15:15.135Z,101115.60
2023-03-06T11:18:27.986Z,101108.27
2023-03-06T11:20:56.521Z,101105.10
2023-03-06T11:23:41.073Z,101104.52
2023-03-06T11:26:15.696Z,101102.89
2023-03-06T11:29:00.085Z,101101.63
2023-03-06T11:31:33.548Z,101104.87
2023-03-06T11:34:08.368Z,101101.54
2023-03-06T11:36:46.797Z,101098.72
2023-03-06T11:39:35.571Z,101096.05
2023-03-06T11:42:25.008Z,101097.70
2023-03-06T11:45:03.973Z,101096.39
2023-03-06T11:47:35.590Z,101099.44
2023-03-06T11:50:07.248Z,101095.54
2023-03-06T11:52:44.632Z,101096.31
2023-03-06T11:55:15.717Z,101095.20
2023-03-06T11:57:51.333Z,101095.95
2023-03-06T12:00:34.040Z,101091.23
2023-03-06T12:03:09.500Z,101089.41
2023-03-06T12:05:42.167Z,101087.77
2023-03-06T12:08:32.765Z,101087.06
2023-03-06T12:14:04.116Z,101090.89
2023-03-06T12:16:58.926Z,101090.52
2023-03-06T12:19:27.925Z,101091.88
2023-03-06T12:22:11.861Z,101090.34
2023-03-06T12:25:11.879Z,101089.35
2023-03-06T12:28:01.674Z,101089.43
2023-03-06T12:30:52.260Z,101089.36
2023-03-06T12:33:30.367Z,101086.05
2023-03-06T12:36:17.380Z,101086.91
2023-03-06T12:39:13.103Z,101086.41
2023-03-06T12:41:48.030Z,101091.83
2023-03-06T12:44:19.377Z,101088.72
2023-03-06T12:47:02.607Z,101083.55
2023-03-06T12:49:33.481Z,101080.15
2023-03-06T12:52:02.340Z,101082.20
2023-03-06T12:54:31.839Z,101078.40
2023-03-06T12:57:00.743Z,101079.61
2023-03-06T12:59:44.872Z,101078.83
2023-03-06T13:02:33.185Z,101075.25
2023-03-06T13:05:11.126Z,101072.40
2023-03-06T13:08:06.024Z,101068.86
2023-03-06T13:10:37.269Z,101073.42
2023-03-06T13:13:33.308Z,101075.27
2023-03-06T13:16:32.468Z,101076.73
2023-03-06T13:19:00.770Z,101075.70
2023-03-06T13:21:57.719Z,101069.27
2023-03-06T13:24:27.530Z,101077.46
2023-03-06T13:27:03.185Z,101072.66
2023-03-06T13:29:37.975Z,101071.55
2023-03-06T13:32:16.241Z,101074.62
2023-03-06T13:34:47.277Z,101073.00
2023-03-06T13:37:20.422Z,101069.30
2023-03-06T13:39:55.526Z,101071.83
2023-03-06T13:42:42.686Z,101064.80
2023-03-06T13:45:27.976Z,101063.81
2023-03-06T13:48:24.610Z,101060.89
2023-03-06T13:50:48.181Z,101063.34
2023-03-06T13:53:18.708Z,101062.66
2023-03-06T13:56:06.849Z,101060.75
2023-03-06T13:59:08.812Z,101059.89
2023-03-06T14:01:59.305Z,101059.75
2023-03-06T14:04:34.854Z,101058.38
2023-03-06T14:07:12.242Z,101058.42
2023-03-06T14:09:45.210Z,101061.08
2023-03-06T14:12:23.947Z,101062.70
2023-03-06T14:14:57.750Z,101060.70
2023-03-06T14:17:37.824Z,101060.44
2023-03-06T14:20:14.697Z,101063.46
2023-03-06T14:22:43.059Z,101063.70
2023-03-06T14:25:17.462Z,101061.48
2023-03-06T14:27:50.566Z,101060.65
2023-03-06T14:30:25.394Z,101059.82
2023-03-06T14:32:56.544Z,101061.41
2023-03-06T14:38:59.438Z,101056.73
2023-03-06T14:41:29.365Z,101059.39
2023-03-06T14:44:22.012Z,101059.26
2023-03-06T14:46:55.213Z,101060.01
2023-03-06T14:49:25.311Z,101057.64
2023-03-06T14:51:57.691Z,101053.86
2023-03-06T14:54:34.552Z,101050.45
2023-03-06T14:57:06.148Z,101051.02
2023-03-06T14:59:43.789Z,101047.79
2023-03-06T15:02:16.502Z,101044.16
2023-03-06T15:05:19.601Z,101046.95
2023-03-06T15:07:48.595Z,101051.73
2023-03-06T15:10:24.669Z,101052.88
2023-03-06T15:12:55.582Z,101058.02
2023-03-06T15:15:29.721Z,101053.98
2023-03-06T15:18:01.961Z,101055.84
2023-03-06T15:20:44.286Z,101054.41
2023-03-06T15:23:26.874Z,101054.92
2023-03-06T15:25:59.466Z,101052.45
2023-03-06T15:28:30.611Z,101051.60
2023-03-06T15:31:19.983Z,101053.01
2023-03-06T15:34:07.188Z,101054.78
2023-03-06T15:36:42.729Z,101052.45
2023-03-06T15:39:26.381Z,101056.52
2023-03-06T15:42:13.687Z,101058.01
2023-03-06T15:44:42.072Z,101065.89
2023-03-06T15:47:11.910Z,101068.43
2023-03-06T15:49:42.820Z,101070.55
2023-03-06T15:52:11.614Z,101074.94
2023-03-06T15:54:40.291Z,101074.14
2023-03-06T15:57:08.978Z,101076.82
2023-03-06T15:59:43.817Z,101077.40
2023-03-06T16:02:17.922Z,101082.11
2023-03-06T16:04:46.608Z,101080.95
2023-03-06T16:07:15.188Z,101082.05
2023-03-06T16:09:43.688Z,101079.14
2023-03-06T16:12:17.501Z,101082.49
2023-03-06T16:14:47.773Z,101085.86
2023-03-06T16:17:17.104Z,101087.45
2023-03-06T16:19:45.685Z,101089.23
2023-03-06T16:22:14.774Z,101092.88
2023-03-06T16:24:43.671Z,101091.86
2023-03-06T16:27:19.088Z,101091.02
2023-03-06T16:29:49.835Z,101092.08
2023-03-06T16:32:18.572Z,101093.48
2023-03-06T16:34:46.899Z,101090.86
2023-03-06T16:37:17.030Z,101087.23
2023-03-06T16:39:45.394Z,101090.85
2023-03-06T16:42:13.596Z,101091.91
2023-03-06T16:44:41.864Z,101094.16
2023-03-06T16:47:13.402Z,101096.45
2023-03-06T16:49:43.069Z,101093.33
2023-03-06T16:52:11.705Z,101087.97
2023-03-06T16:54:44.567Z,101084.00
2023-03-06T16:57:14.321Z,101085.91
2023-03-06T16:59:42.660Z,101084.88
2023-03-06T17:02:12.850Z,101082.30
2023-03-06T17:04:41.158Z,101080.59
